Terminal Aerodrome Forecast
Issued by NWS Topeka, KS

Home | Current Version | Previous Version | Text Only | Print | Product List | Glossary On
Versions: 1 2 3 4 5 6 7 8 9 10 11 12 13 14
023
FTUS43 KTOP 202339
TAFTOP
TAF
KTOP 202339Z 2100/2124 19010KT P6SM SKC
     FM210800 19005KT P6SM SKC WS010/23040KT
     FM211300 20007KT P6SM SKC
     FM212100 18012G22KT P6SM FEW070=

USA.gov is the U.S. government's official web portal to all federal, state and local government web resources and services.